UOX weather

University Oxford Airport
Oxford, Mississippi, United States

Public forecast

Using degrees Fahrenheit for public forecast. Weather courtesy of forecast.io.

METAR (pilot weather report)

Retrieved 2019/09/17 03:35 UTC (4 minutes ago):

KUOX 170335Z AUTO 00000KT 10SM CLR 23/20 A3004 RMK AO2

TAF (pilot weather forecast)

Forecast is more than 12 hours old.

Closest forecast is Tupelo Regional Airport, 38.7 nm (71.6 km) E. Retrieved 2019/09/16 00:36 UTC (1 day ago):

TAF KTUP 162333Z 1700/1724 VRB03KT P6SM SKC FM171600 36004KT P6SM SKC